Terminal Aerodrome Forecast
Issued by NWS Birmingham, AL

Home | Current Version | Previous Version | Text Only | Print | Product List | Glossary On
Versions: 1 2 3 4 5 6 7 8 9 10 11 12 13 14 15 16 17 18 19 20 21 22 23 24 25 26
000
FTUS44 KBMX 280908 AAB
TAFBHM
TAF AMD
KBHM 280908Z 2809/2906 09003KT P6SM SCT005 BKN100
      TEMPO 2809/2811 4SM BR BKN005
     FM281100 12003KT 5SM BR OVC005
     FM281600 12005KT P6SM VCSH BKN015
     FM281900 12007KT P6SM SHRA VCTS OVC050CB
     FM290200 11004KT P6SM OVC050=

USA.gov is the U.S. government's official web portal to all federal, state and local government web resources and services.